Time;durP1;ratioP1;P1;durP2;ratioP2;P2;SDS_P1;SDS_P2;PMS_P1;PMS_P2;Temp;Humidity;BMP_temperature;BMP_pressure;BME280_temperature;BME280_humidity;BME280_pressure;Samples;Min_cycle;Max_cycle;Signal;HPM_P1;HPM_P2
2021/09/18 00:02:17;;;;;;;17.10;13.68;;;18.30;93.10;;;;;;4984385;28;20018;-84
2021/09/18 00:04:42;;;;;;;17.33;13.73;;;18.30;93.20;;;;;;4995020;28;20060;-87
2021/09/18 00:07:08;;;;;;;16.45;13.88;;;18.20;93.10;;;;;;5002523;28;20103;-85
2021/09/18 00:09:34;;;;;;;14.70;12.30;;;18.20;93.10;;;;;;5002461;28;20121;-85
2021/09/18 00:11:59;;;;;;;15.00;12.10;;;18.20;93.00;;;;;;5003661;28;20076;-86
2021/09/18 00:14:25;;;;;;;13.25;10.63;;;18.20;93.00;;;;;;5020241;28;20527;-86
2021/09/18 00:16:51;;;;;;;15.60;11.10;;;18.20;93.10;;;;;;5019984;28;20361;-86
2021/09/18 00:19:16;;;;;;;14.98;11.73;;;18.10;93.10;;;;;;5003211;28;20025;-86
2021/09/18 00:21:42;;;;;;;14.85;12.40;;;18.10;93.10;;;;;;4993129;28;20103;-85
2021/09/18 00:24:08;;;;;;;14.15;12.25;;;18.10;93.10;;;;;;5000846;28;20079;-85
2021/09/18 00:26:34;;;;;;;13.80;12.02;;;18.00;93.10;;;;;;5003721;28;20053;-85
2021/09/18 00:29:01;;;;;;;14.77;12.30;;;18.00;93.30;;;;;;4987671;28;20029;-84
2021/09/18 00:31:27;;;;;;;16.17;13.20;;;18.00;93.30;;;;;;5000301;28;20100;-87
2021/09/18 00:33:53;;;;;;;15.45;12.77;;;17.90;93.20;;;;;;4984114;28;20022;-86
2021/09/18 00:36:19;;;;;;;13.57;11.65;;;17.90;93.40;;;;;;5019698;28;20025;-86
2021/09/18 00:38:45;;;;;;;15.40;12.98;;;17.90;93.30;;;;;;5003861;28;20065;-86
2021/09/18 00:41:11;;;;;;;13.98;11.18;;;17.90;93.30;;;;;;5000024;28;20026;-86
2021/09/18 00:43:36;;;;;;;14.82;11.25;;;17.90;93.30;;;;;;4984559;28;20041;-85
2021/09/18 00:46:03;;;;;;;14.77;11.90;;;17.80;93.30;;;;;;5006347;28;20026;-86
2021/09/18 00:48:29;;;;;;;13.80;11.90;;;17.80;93.20;;;;;;5016584;28;20056;-87
2021/09/18 00:50:55;;;;;;;16.40;12.57;;;17.80;93.30;;;;;;5056963;28;20017;-87
2021/09/18 00:53:22;;;;;;;18.17;13.50;;;17.80;93.30;;;;;;5041112;28;20029;-86
2021/09/18 00:55:48;;;;;;;15.85;12.95;;;17.70;93.40;;;;;;5042897;28;20020;-87
2021/09/18 00:58:14;;;;;;;14.95;13.02;;;17.70;93.30;;;;;;5041171;28;20021;-87
2021/09/18 01:00:40;;;;;;;14.82;12.02;;;17.70;93.40;;;;;;5041914;28;20034;-90
2021/09/18 01:03:06;;;;;;;14.18;12.30;;;17.70;93.30;;;;;;5040933;28;20047;-87
2021/09/18 01:05:32;;;;;;;14.65;12.52;;;17.70;93.30;;;;;;5038922;28;20037;-87
2021/09/18 01:07:58;;;;;;;17.83;12.32;;;17.60;93.30;;;;;;5000137;28;20056;-87
2021/09/18 01:10:25;;;;;;;14.20;11.82;;;17.60;93.30;;;;;;5010864;28;20085;-86
2021/09/18 01:13:11;;;;;;;14.90;12.48;;;17.60;93.30;;;;;;5000295;28;20122;-87
2021/09/18 01:15:39;;;;;;;15.13;13.02;;;17.50;93.40;;;;;;5011561;28;20029;-87
2021/09/18 01:18:06;;;;;;;13.80;11.50;;;17.50;93.40;;;;;;5002484;28;20017;-87
2021/09/18 01:20:33;;;;;;;13.02;11.02;;;17.50;93.40;;;;;;5019158;28;20393;-86
2021/09/18 01:23:01;;;;;;;14.30;11.55;;;17.50;93.30;;;;;;5014024;28;20030;-86
2021/09/18 01:25:29;;;;;;;13.02;10.75;;;17.40;93.40;;;;;;5018894;28;20057;-87
2021/09/18 01:27:55;;;;;;;13.95;10.95;;;17.40;93.40;;;;;;5001023;28;20481;-87
2021/09/18 01:30:29;;;;;;;13.32;10.70;;;17.40;93.30;;;;;;5009763;28;20682;-86
2021/09/18 01:32:56;;;;;;;13.55;10.52;;;17.40;93.40;;;;;;5036010;28;20100;-86
2021/09/18 01:35:23;;;;;;;13.57;10.55;;;17.30;93.40;;;;;;5002482;28;20112;-86
2021/09/18 01:37:48;;;;;;;11.55;9.73;;;17.30;93.40;;;;;;5018444;28;20052;-86
2021/09/18 01:40:22;;;;;;;11.27;9.43;;;17.30;93.40;;;;;;4982884;28;20037;-87
2021/09/18 01:42:49;;;;;;;11.55;9.98;;;17.30;93.40;;;;;;5032303;28;20064;-87
2021/09/18 01:45:15;;;;;;;11.93;9.73;;;17.20;93.40;;;;;;5018608;28;20053;-87
2021/09/18 01:47:55;;;;;;;11.48;9.60;;;17.20;93.40;;;;;;5017894;28;20025;-87
2021/09/18 01:50:21;;;;;;;10.88;9.32;;;17.20;93.70;;;;;;4990802;28;20021;-85
2021/09/18 01:52:50;;;;;;;10.55;8.48;;;17.10;93.40;;;;;;5011732;28;20540;-85
2021/09/18 01:55:16;;;;;;;11.02;8.55;;;17.10;93.50;;;;;;5023951;28;20115;-85
2021/09/18 01:57:47;;;;;;;10.57;8.32;;;17.10;93.60;;;;;;5016049;28;20033;-86
2021/09/18 02:00:14;;;;;;;;;;;17.10;93.60;;;;;;5006824;28;20026;-86
2021/09/18 02:02:40;;;;;;;10.43;7.80;;;17.10;93.70;;;;;;5034592;28;19905;-86
2021/09/18 02:05:07;;;;;;;10.05;8.18;;;17.00;93.70;;;;;;5035955;28;20060;-87
2021/09/18 02:07:33;;;;;;;12.07;8.32;;;17.00;93.80;;;;;;5012739;28;20045;-86
2021/09/18 02:09:59;;;;;;;10.88;8.32;;;17.00;93.70;;;;;;4998225;28;20038;-86
2021/09/18 02:12:24;;;;;;;10.60;8.98;;;16.90;93.60;;;;;;4996115;28;20386;-86
2021/09/18 02:14:50;;;;;;;9.98;7.93;;;16.90;93.50;;;;;;5023995;28;20030;-86
2021/09/18 02:17:15;;;;;;;9.75;7.75;;;16.90;93.40;;;;;;5003277;28;20662;-86
2021/09/18 02:19:41;;;;;;;10.30;8.15;;;16.90;93.60;;;;;;5032232;28;20109;-86
2021/09/18 02:22:07;;;;;;;8.90;7.28;;;16.80;93.50;;;;;;5017314;28;20481;-86
2021/09/18 02:24:32;;;;;;;9.43;6.32;;;16.80;93.40;;;;;;5005073;28;20103;-85
2021/09/18 02:26:58;;;;;;;6.88;5.80;;;16.80;93.50;;;;;;5007907;28;20478;-85
2021/09/18 02:29:24;;;;;;;9.98;6.20;;;16.70;93.50;;;;;;5001771;28;20412;-86
2021/09/18 02:31:49;;;;;;;9.43;7.00;;;16.70;93.40;;;;;;4985175;28;20073;-86
2021/09/18 02:34:15;;;;;;;10.10;7.55;;;16.70;93.40;;;;;;4987904;28;20026;-87
2021/09/18 02:36:41;;;;;;;10.07;7.30;;;16.70;93.90;;;;;;5001399;28;20030;-86
2021/09/18 02:39:07;;;;;;;10.50;7.00;;;16.60;93.60;;;;;;5001085;28;20029;-86
2021/09/18 02:41:32;;;;;;;11.82;8.30;;;16.60;93.60;;;;;;5003685;28;20121;-87
2021/09/18 02:43:58;;;;;;;11.63;8.02;;;16.60;93.50;;;;;;5016446;28;20371;-86
2021/09/18 02:46:24;;;;;;;9.70;7.72;;;16.60;93.50;;;;;;4988605;28;20006;-87
2021/09/18 02:48:49;;;;;;;10.50;8.10;;;16.50;93.60;;;;;;4996655;28;20026;-86
2021/09/18 02:51:15;;;;;;;10.40;7.80;;;16.50;93.80;;;;;;5007889;28;20386;-87
2021/09/18 02:53:40;;;;;;;11.40;8.80;;;16.50;93.80;;;;;;5020257;28;20036;-87
2021/09/18 02:56:06;;;;;;;9.63;7.22;;;16.50;93.90;;;;;;5001179;28;20764;-86
2021/09/18 02:58:32;;;;;;;8.18;7.15;;;16.50;93.80;;;;;;4984716;28;20022;-86
2021/09/18 03:00:58;;;;;;;8.90;7.28;;;16.50;93.80;;;;;;5015880;28;20432;-87
2021/09/18 03:03:24;;;;;;;9.02;6.75;;;16.50;93.70;;;;;;4983665;28;20486;-87
2021/09/18 03:05:50;;;;;;;9.98;7.22;;;16.40;93.70;;;;;;4982159;28;20037;-87
2021/09/18 03:08:15;;;;;;;10.38;7.18;;;16.40;93.70;;;;;;5011187;28;20056;-88
2021/09/18 03:10:41;;;;;;;9.63;7.00;;;16.40;93.80;;;;;;5020457;28;20518;-87
2021/09/18 03:13:07;;;;;;;10.23;7.05;;;16.40;93.70;;;;;;4984404;28;20463;-86
2021/09/18 03:15:33;;;;;;;11.68;7.07;;;16.40;93.70;;;;;;4981404;28;20117;-85
2021/09/18 03:17:59;;;;;;;11.48;6.35;;;16.40;93.70;;;;;;5030837;28;20025;-84
2021/09/18 03:20:24;;;;;;;8.45;6.10;;;16.30;93.60;;;;;;5003736;28;20517;-85
2021/09/18 03:22:50;;;;;;;7.78;5.88;;;16.30;93.60;;;;;;5019960;28;20116;-87
2021/09/18 03:25:16;;;;;;;7.80;5.72;;;16.30;93.60;;;;;;5004026;28;20043;-86
2021/09/18 03:27:41;;;;;;;7.78;5.53;;;16.30;93.60;;;;;;4988188;28;20408;-85
2021/09/18 03:30:08;;;;;;;8.93;5.28;;;16.20;93.60;;;;;;5003483;28;20033;-86
2021/09/18 03:32:33;;;;;;;7.00;5.50;;;16.20;93.70;;;;;;5020866;28;20036;-85
2021/09/18 03:34:59;;;;;;;6.22;4.00;;;16.20;93.70;;;;;;5037681;28;20029;-86
2021/09/18 03:37:25;;;;;;;6.40;4.07;;;16.20;93.80;;;;;;5020942;28;20036;-86
2021/09/18 03:39:51;;;;;;;5.45;4.15;;;16.20;93.80;;;;;;4983996;28;20032;-86
2021/09/18 03:42:16;;;;;;;5.93;3.90;;;16.10;93.80;;;;;;4977844;28;20430;-86
2021/09/18 03:44:42;;;;;;;4.93;3.75;;;16.10;93.70;;;;;;5002405;28;20026;-85
2021/09/18 03:47:07;;;;;;;5.63;3.78;;;16.10;93.80;;;;;;5004023;28;20157;-85
2021/09/18 03:49:33;;;;;;;5.25;3.53;;;16.00;93.80;;;;;;5004384;28;20029;-85
2021/09/18 03:52:00;;;;;;;6.10;3.53;;;16.00;93.90;;;;;;4985079;28;20042;-86
2021/09/18 03:54:26;;;;;;;5.88;3.53;;;16.00;93.80;;;;;;4992705;28;20205;-85
2021/09/18 03:56:51;;;;;;;6.53;4.18;;;16.00;93.80;;;;;;5033268;28;20117;-86
2021/09/18 03:59:17;;;;;;;5.38;4.13;;;16.00;93.80;;;;;;4990830;28;20155;-86
2021/09/18 04:01:43;;;;;;;6.63;4.53;;;15.90;93.80;;;;;;5003987;28;20033;-86
2021/09/18 04:04:08;;;;;;;6.38;4.40;;;15.90;93.90;;;;;;5020781;28;20033;-85
2021/09/18 04:06:34;;;;;;;6.65;4.32;;;15.90;93.90;;;;;;5020116;28;20050;-86
2021/09/18 04:09:00;;;;;;;6.68;4.68;;;15.90;93.90;;;;;;5004016;28;20037;-85
2021/09/18 04:11:25;;;;;;;5.22;3.92;;;15.90;94.00;;;;;;5020498;28;20116;-86
2021/09/18 04:13:51;;;;;;;5.38;3.53;;;15.90;94.00;;;;;;4990728;28;20056;-86
2021/09/18 04:16:21;;;;;;;4.88;2.95;;;15.90;93.90;;;;;;4994063;28;20026;-85
2021/09/18 04:18:47;;;;;;;5.20;3.38;;;15.80;93.90;;;;;;4997938;28;20030;-85
2021/09/18 04:21:12;;;;;;;4.85;3.10;;;15.80;93.90;;;;;;5007666;28;20029;-86
2021/09/18 04:23:38;;;;;;;7.57;3.97;;;15.70;93.90;;;;;;5020812;28;20112;-86
2021/09/18 04:26:04;;;;;;;6.47;3.60;;;15.70;93.80;;;;;;5003859;28;20030;-85
2021/09/18 04:28:29;;;;;;;6.60;4.25;;;15.70;93.90;;;;;;5008680;28;20025;-87
2021/09/18 04:30:55;;;;;;;9.00;5.60;;;15.70;94.10;;;;;;5023405;28;20024;-86
2021/09/18 04:33:20;;;;;;;9.57;5.78;;;15.70;94.20;;;;;;5020500;28;20014;-89
2021/09/18 04:35:46;;;;;;;9.82;6.38;;;15.70;94.40;;;;;;5026192;28;20009;-87
2021/09/18 04:38:12;;;;;;;10.38;6.97;;;15.70;94.50;;;;;;5022947;28;20086;-89
2021/09/18 04:40:37;;;;;;;11.25;7.38;;;15.70;94.60;;;;;;5046689;28;20037;-87
2021/09/18 04:43:03;;;;;;;10.13;6.45;;;15.70;94.70;;;;;;5006917;28;20013;-91
2021/09/18 04:45:29;;;;;;;9.10;6.03;;;15.70;94.90;;;;;;5011151;28;20009;-87
2021/09/18 04:47:54;;;;;;;8.95;6.13;;;15.70;94.80;;;;;;5029055;28;20029;-86
2021/09/18 04:50:20;;;;;;;7.53;5.85;;;15.70;94.90;;;;;;5006063;28;20029;-86
2021/09/18 04:52:46;;;;;;;9.45;5.97;;;15.70;95.00;;;;;;5001114;28;20030;-86
2021/09/18 04:55:12;;;;;;;10.63;6.57;;;15.70;95.10;;;;;;4984787;28;20075;-86
2021/09/18 04:57:39;;;;;;;7.00;6.13;;;15.70;95.00;;;;;;5000043;28;20053;-86
2021/09/18 05:00:05;;;;;;;8.82;6.32;;;15.70;95.00;;;;;;5015093;28;20021;-86
2021/09/18 05:02:31;;;;;;;9.45;6.70;;;15.70;95.10;;;;;;5011849;28;20122;-86
2021/09/18 05:04:56;;;;;;;7.57;6.30;;;15.70;95.20;;;;;;4996146;28;20057;-87
2021/09/18 05:07:22;;;;;;;9.88;6.45;;;15.60;95.10;;;;;;5002367;28;20053;-85
2021/09/18 05:09:48;;;;;;;7.78;6.28;;;15.60;95.10;;;;;;4983255;28;20026;-85
2021/09/18 05:12:14;;;;;;;8.25;6.60;;;15.60;95.10;;;;;;4999618;28;20044;-86
2021/09/18 05:14:39;;;;;;;8.27;6.97;;;15.60;95.10;;;;;;4988658;28;20430;-86
2021/09/18 05:17:05;;;;;;;8.07;6.53;;;15.60;95.10;;;;;;5000864;28;20033;-85
2021/09/18 05:19:31;;;;;;;9.75;7.30;;;15.60;95.20;;;;;;5018741;28;20385;-85
2021/09/18 05:21:57;;;;;;;8.75;7.13;;;15.60;95.20;;;;;;5001940;28;20037;-85
2021/09/18 05:24:25;;;;;;;8.95;7.65;;;15.60;95.30;;;;;;4985979;28;20022;-85
2021/09/18 05:26:51;;;;;;;9.23;7.95;;;15.60;95.30;;;;;;5018497;28;20021;-85
2021/09/18 05:29:17;;;;;;;8.82;7.93;;;15.60;95.30;;;;;;5017626;28;20433;-86
2021/09/18 05:31:44;;;;;;;9.38;8.15;;;15.50;95.40;;;;;;5018211;28;20025;-86
2021/09/18 05:34:09;;;;;;;10.20;8.48;;;15.50;95.40;;;;;;4984262;28;20025;-85
2021/09/18 05:36:35;;;;;;;10.95;8.88;;;15.50;95.40;;;;;;4984983;28;20139;-85
2021/09/18 05:39:02;;;;;;;11.77;8.40;;;15.50;95.70;;;;;;5017550;28;20029;-85
2021/09/18 05:41:28;;;;;;;9.93;8.75;;;15.50;95.50;;;;;;5035741;28;20033;-87
2021/09/18 05:43:53;;;;;;;12.55;9.20;;;15.50;95.50;;;;;;5000972;28;20022;-85
2021/09/18 05:46:19;;;;;;;9.80;8.57;;;15.50;95.60;;;;;;5000476;28;20033;-86
2021/09/18 05:48:45;;;;;;;9.20;8.13;;;15.50;95.60;;;;;;5017393;28;20032;-86
2021/09/18 05:51:10;;;;;;;10.35;8.57;;;15.50;95.60;;;;;;5000223;28;20476;-85
2021/09/18 05:53:37;;;;;;;9.73;8.40;;;15.50;95.70;;;;;;5017715;28;20025;-85
2021/09/18 05:56:03;;;;;;;10.15;9.05;;;15.50;95.70;;;;;;5008303;28;20037;-85
2021/09/18 05:58:29;;;;;;;9.98;8.85;;;15.50;95.80;;;;;;5011468;28;20060;-84
2021/09/18 06:00:54;;;;;;;9.50;8.30;;;15.50;95.80;;;;;;4980666;28;20439;-85
2021/09/18 06:03:20;;;;;;;12.02;8.02;;;15.50;95.90;;;;;;4977366;28;20088;-85
2021/09/18 06:05:46;;;;;;;15.45;8.48;;;15.50;95.90;;;;;;5016732;28;20030;-86
2021/09/18 06:08:12;;;;;;;8.65;7.75;;;15.50;96.10;;;;;;4994549;28;20137;-86
2021/09/18 06:10:38;;;;;;;8.52;7.63;;;15.50;96.00;;;;;;5021345;28;20056;-85
2021/09/18 06:13:03;;;;;;;11.50;7.80;;;15.50;96.10;;;;;;5017713;28;20469;-88
2021/09/18 06:15:29;;;;;;;10.80;8.13;;;15.50;96.10;;;;;;5001216;28;20032;-85
2021/09/18 06:17:55;;;;;;;10.55;8.45;;;15.50;96.20;;;;;;5001294;28;20500;-85
2021/09/18 06:20:21;;;;;;;11.25;8.07;;;15.50;96.30;;;;;;5009097;28;20041;-85
2021/09/18 06:22:46;;;;;;;10.48;8.82;;;15.60;96.30;;;;;;5014211;28;20032;-86
2021/09/18 06:25:12;;;;;;;15.95;9.00;;;15.50;96.30;;;;;;5011241;28;20030;-86
2021/09/18 06:27:42;;;;;;;11.95;8.70;;;15.50;96.40;;;;;;4991356;28;20033;-85
2021/09/18 06:30:09;;;;;;;11.80;8.80;;;15.60;96.40;;;;;;4996958;28;20114;-86
2021/09/18 06:32:35;;;;;;;11.13;8.77;;;15.50;96.50;;;;;;5026269;28;20021;-86
2021/09/18 06:35:01;;;;;;;15.63;9.70;;;15.60;96.50;;;;;;5012786;28;20026;-86
2021/09/18 06:37:27;;;;;;;12.18;9.85;;;15.60;96.60;;;;;;4971359;28;20453;-86
2021/09/18 06:39:52;;;;;;;11.77;9.65;;;15.60;96.70;;;;;;4998836;28;20026;-86
2021/09/18 06:42:18;;;;;;;10.77;9.27;;;15.60;96.70;;;;;;5016699;28;20064;-86
2021/09/18 06:44:45;;;;;;;12.38;9.63;;;15.60;96.70;;;;;;5017705;28;20075;-85
2021/09/18 06:47:11;;;;;;;11.68;9.57;;;15.70;96.80;;;;;;5011496;28;20026;-89
2021/09/18 06:49:37;;;;;;;13.85;9.82;;;15.70;96.80;;;;;;5004776;28;20103;-86
2021/09/18 06:52:04;;;;;;;18.50;10.77;;;15.70;96.80;;;;;;5005997;28;20061;-86
2021/09/18 06:54:30;;;;;;;11.98;10.18;;;15.70;96.80;;;;;;5027961;28;20021;-86
2021/09/18 06:56:55;;;;;;;10.52;9.13;;;15.70;96.90;;;;;;4994402;28;20025;-85
2021/09/18 06:59:21;;;;;;;13.43;10.38;;;15.70;96.90;;;;;;5008694;28;20115;-86
2021/09/18 07:01:46;;;;;;;11.70;9.70;;;15.80;97.00;;;;;;4992495;28;20103;-86
2021/09/18 07:04:12;;;;;;;12.27;10.43;;;15.80;97.00;;;;;;5005218;28;20025;-87
2021/09/18 07:06:38;;;;;;;16.30;10.55;;;15.80;97.00;;;;;;4997856;28;20088;-86
2021/09/18 07:09:03;;;;;;;13.07;11.40;;;15.80;97.10;;;;;;4996671;28;20026;-88
2021/09/18 07:11:29;;;;;;;12.63;10.80;;;15.80;97.10;;;;;;5029280;28;20242;-86
2021/09/18 07:13:55;;;;;;;12.35;10.73;;;15.90;97.20;;;;;;4994672;28;20520;-87
2021/09/18 07:16:21;;;;;;;12.80;11.23;;;15.90;97.10;;;;;;5016451;28;20079;-86
2021/09/18 07:18:46;;;;;;;12.35;10.60;;;15.90;97.20;;;;;;4984861;28;20097;-85
2021/09/18 07:21:12;;;;;;;12.90;11.35;;;15.90;97.20;;;;;;4997720;28;20042;-86
2021/09/18 07:23:38;;;;;;;16.00;10.45;;;16.00;97.30;;;;;;4996800;28;20032;-86
2021/09/18 07:26:03;;;;;;;13.43;10.57;;;16.00;97.40;;;;;;4999022;28;20030;-86
2021/09/18 07:28:29;;;;;;;13.20;11.18;;;16.00;97.40;;;;;;4993768;28;20064;-87
2021/09/18 07:30:55;;;;;;;12.40;10.80;;;16.00;97.40;;;;;;5016703;28;20091;-87
2021/09/18 07:33:21;;;;;;;11.70;9.50;;;16.00;97.40;;;;;;5010563;28;20025;-87
2021/09/18 07:35:47;;;;;;;11.55;9.75;;;16.00;97.40;;;;;;4994739;28;20030;-87
2021/09/18 07:38:14;;;;;;;12.95;10.40;;;16.00;97.40;;;;;;5000383;28;20026;-87
2021/09/18 07:40:40;;;;;;;15.13;9.95;;;16.10;97.40;;;;;;5001171;28;20033;-85
2021/09/18 07:43:05;;;;;;;11.93;10.27;;;16.10;97.40;;;;;;5015450;28;20044;-86
2021/09/18 07:45:31;;;;;;;15.00;11.73;;;16.10;97.40;;;;;;5010112;28;20038;-86
2021/09/18 07:47:57;;;;;;;13.23;10.82;;;16.20;97.50;;;;;;4995509;28;20026;-86
2021/09/18 07:50:23;;;;;;;14.30;11.45;;;16.20;97.50;;;;;;4983486;28;20046;-86
2021/09/18 07:52:49;;;;;;;15.68;12.48;;;16.20;97.50;;;;;;5013466;28;20507;-93
2021/09/18 07:55:15;;;;;;;14.90;12.68;;;16.20;97.50;;;;;;5019751;28;20033;-88
2021/09/18 07:57:41;;;;;;;14.50;12.63;;;16.20;97.60;;;;;;5035839;28;20109;-86
2021/09/18 08:00:08;;;;;;;14.23;12.00;;;16.20;97.90;;;;;;5003695;28;20022;-86
2021/09/18 08:02:34;;;;;;;16.25;12.93;;;16.30;97.60;;;;;;4999479;28;20045;-87
2021/09/18 08:05:03;;;;;;;15.23;12.82;;;16.30;97.70;;;;;;5014646;28;20449;-86
2021/09/18 08:07:29;;;;;;;16.02;13.60;;;16.30;97.70;;;;;;5018486;28;20390;-86
2021/09/18 08:09:56;;;;;;;14.48;12.55;;;16.30;97.80;;;;;;5036129;28;20037;-88
2021/09/18 08:12:23;;;;;;;15.95;13.18;;;16.40;97.80;;;;;;4994533;28;20034;-90
2021/09/18 08:14:50;;;;;;;15.40;12.73;;;16.40;97.80;;;;;;5029313;28;20032;-88
2021/09/18 08:17:16;;;;;;;16.00;12.60;;;16.40;97.80;;;;;;4994796;28;20022;-90
2021/09/18 08:19:41;;;;;;;16.25;12.68;;;16.40;97.80;;;;;;5010144;28;20076;-91
2021/09/18 08:22:07;;;;;;;15.27;12.07;;;16.40;97.80;;;;;;5030565;28;20010;-90
2021/09/18 08:24:32;;;;;;;16.73;12.93;;;16.50;97.80;;;;;;5024005;28;20085;-89
2021/09/18 08:26:58;;;;;;;16.65;12.95;;;16.50;98.10;;;;;;5034429;28;20021;-90
2021/09/18 08:29:24;;;;;;;15.57;12.43;;;16.50;97.80;;;;;;4992686;28;20117;-90
2021/09/18 08:31:49;;;;;;;17.00;13.15;;;16.60;97.80;;;;;;5013980;28;20091;-90
2021/09/18 08:34:17;;;;;;;18.33;14.00;;;16.60;97.80;;;;;;5000616;28;20026;-93
2021/09/18 08:36:43;;;;;;;17.77;13.55;;;16.60;97.80;;;;;;4987920;28;20026;-89
2021/09/18 08:39:09;;;;;;;19.08;14.32;;;16.70;97.80;;;;;;4983885;28;20093;-88
2021/09/18 08:41:35;;;;;;;17.25;13.90;;;16.70;97.80;;;;;;5035153;28;20064;-89
2021/09/18 08:44:00;;;;;;;22.15;17.30;;;16.70;97.80;;;;;;5020016;28;20381;-90
2021/09/18 08:46:28;;;;;;;20.77;14.85;;;16.80;97.90;;;;;;4984706;28;20437;-90
2021/09/18 08:48:54;;;;;;;18.25;13.98;;;16.80;97.90;;;;;;5013328;28;20018;-90
2021/09/18 08:51:20;;;;;;;19.90;14.63;;;16.90;98.20;;;;;;5018543;28;20044;-89
2021/09/18 08:53:46;;;;;;;22.60;15.93;;;16.90;97.90;;;;;;4994424;28;20022;-89
2021/09/18 08:56:16;;;;;;;19.58;15.32;;;17.00;97.90;;;;;;5006491;28;20025;-89
2021/09/18 08:58:42;;;;;;;21.38;14.93;;;17.00;97.90;;;;;;5016917;28;20080;-91
2021/09/18 09:01:07;;;;;;;20.20;15.15;;;17.10;98.00;;;;;;5000189;28;20041;-89
2021/09/18 09:03:36;;;;;;;19.27;15.27;;;17.10;98.00;;;;;;5010579;28;20022;-88
2021/09/18 09:06:14;;;;;;;18.50;14.63;;;17.10;97.90;;;;;;5018657;28;20052;-88
2021/09/18 09:08:53;;;;;;;18.58;14.88;;;17.20;98.00;;;;;;5018562;28;20046;-88
2021/09/18 09:11:21;;;;;;;20.50;17.27;;;17.30;98.00;;;;;;5019370;28;20110;-92
2021/09/18 09:14:04;;;;;;;21.27;17.10;;;17.30;98.00;;;;;;5002453;28;20032;-87
2021/09/18 09:16:34;;;;;;;20.88;17.33;;;17.40;98.10;;;;;;5028682;28;20057;-88
2021/09/18 09:19:16;;;;;;;20.15;16.23;;;17.40;98.00;;;;;;5013533;28;20021;-88
2021/09/18 09:21:53;;;;;;;18.95;13.65;;;17.50;98.00;;;;;;5018689;28;20029;-88
2021/09/18 09:24:21;;;;;;;19.80;15.43;;;17.50;98.00;;;;;;5002859;28;20173;-92
2021/09/18 09:27:05;;;;;;;22.00;16.08;;;17.50;97.90;;;;;;5009884;28;20481;-90
2021/09/18 09:29:45;;;;;;;27.85;21.15;;;17.60;98.00;;;;;;5022860;28;20025;-90
2021/09/18 09:32:32;;;;;;;21.52;17.00;;;17.60;98.00;;;;;;5020700;28;20128;-91
2021/09/18 09:35:09;;;;;;;25.42;19.33;;;17.60;97.90;;;;;;5006874;28;20041;-90
2021/09/18 09:37:36;;;;;;;23.40;18.10;;;17.70;98.00;;;;;;5015615;28;20041;-89
2021/09/18 09:40:05;;;;;;;23.27;17.23;;;17.80;98.00;;;;;;5036428;28;20028;-89
2021/09/18 09:42:34;;;;;;;23.00;17.95;;;17.80;98.00;;;;;;5013727;28;20029;-88
2021/09/18 09:45:17;;;;;;;23.23;18.02;;;17.90;98.00;;;;;;5034470;28;20029;-87
2021/09/18 09:47:45;;;;;;;25.35;19.40;;;17.90;97.90;;;;;;5018164;28;20026;-88
2021/09/18 09:50:11;;;;;;;24.58;18.10;;;18.00;97.90;;;;;;5011995;28;20390;-85
2021/09/18 09:52:39;;;;;;;38.42;19.15;;;18.00;97.90;;;;;;4983441;28;20046;-85
2021/09/18 09:55:12;;;;;;;28.02;20.08;;;18.10;97.90;;;;;;5013738;28;20013;-83
2021/09/18 09:57:55;;;;;;;23.17;18.52;;;18.20;98.00;;;;;;5016469;28;20052;-84
2021/09/18 10:00:21;;;;;;;26.30;19.65;;;18.20;97.80;;;;;;5034835;28;20052;-88
2021/09/18 10:02:46;;;;;;;25.30;18.90;;;18.30;97.90;;;;;;5016604;28;20444;-85
2021/09/18 10:05:14;;;;;;;27.15;21.63;;;18.30;97.80;;;;;;5016588;28;20026;-84
2021/09/18 10:07:41;;;;;;;28.90;20.75;;;18.40;97.80;;;;;;5026972;28;20133;-86
2021/09/18 10:10:09;;;;;;;26.17;18.05;;;18.50;97.80;;;;;;5005110;28;20026;-83
2021/09/18 10:12:36;;;;;;;21.13;17.23;;;18.50;97.70;;;;;;5004435;28;20033;-84
2021/09/18 10:15:05;;;;;;;21.95;17.90;;;18.60;97.70;;;;;;5025771;28;20156;-83
2021/09/18 10:17:33;;;;;;;21.13;17.48;;;18.70;97.70;;;;;;5011254;28;20026;-86
2021/09/18 10:25:28;;;;;;;22.63;17.92;;;18.80;97.50;;;;;;5016140;28;20173;-85
2021/09/18 10:28:01;;;;;;;21.25;17.35;;;18.90;97.50;;;;;;5017622;28;20119;-86
2021/09/18 10:30:38;;;;;;;19.52;15.98;;;19.00;97.40;;;;;;5017653;28;20033;-87
2021/09/18 10:33:05;;;;;;;21.17;17.92;;;19.10;97.40;;;;;;5016674;28;20539;-89
2021/09/18 10:35:32;;;;;;;20.90;17.02;;;19.20;97.40;;;;;;4990560;28;20026;-87
2021/09/18 10:38:22;;;;;;;18.88;15.50;;;19.20;97.40;;;;;;4996390;28;20026;-87
2021/09/18 10:41:07;;;;;;;18.30;15.13;;;19.30;97.30;;;;;;5018878;28;20033;-86
2021/09/18 10:43:37;;;;;;;21.25;17.58;;;19.40;97.20;;;;;;5030707;28;20087;-86
2021/09/18 10:46:05;;;;;;;20.57;17.83;;;19.50;97.20;;;;;;5017182;28;20036;-88
2021/09/18 10:48:46;;;;;;;19.90;16.48;;;19.50;96.90;;;;;;4999502;28;20029;-86
2021/09/18 10:51:33;;;;;;;18.98;13.75;;;19.60;96.80;;;;;;5017832;28;20390;-86
2021/09/18 10:54:11;;;;;;;17.45;14.00;;;19.70;96.80;;;;;;5012426;28;20025;-89
2021/09/18 10:56:57;;;;;;;17.45;13.02;;;19.70;96.70;;;;;;5013906;28;20397;-86
2021/09/18 10:59:46;;;;;;;18.10;15.25;;;19.80;96.60;;;;;;4988439;28;20072;-89
2021/09/18 11:02:30;;;;;;;21.63;18.52;;;19.90;96.50;;;;;;5020904;28;20036;-86
2021/09/18 11:05:03;;;;;;;19.38;15.93;;;19.90;96.30;;;;;;5033958;28;20029;-86
2021/09/18 11:07:40;;;;;;;19.85;16.63;;;20.00;96.20;;;;;;4997635;28;20132;-87
2021/09/18 11:10:12;;;;;;;20.55;16.63;;;20.10;96.10;;;;;;5013499;28;20029;-87
2021/09/18 11:12:38;;;;;;;25.42;20.65;;;20.20;96.10;;;;;;5034640;28;20041;-86
2021/09/18 11:15:10;;;;;;;20.70;18.38;;;20.20;95.90;;;;;;5001216;28;20432;-87
2021/09/18 11:17:44;;;;;;;21.58;18.20;;;20.30;95.80;;;;;;5031961;28;20597;-87
2021/09/18 11:20:15;;;;;;;21.27;17.35;;;20.40;95.70;;;;;;5025005;28;20100;-87
2021/09/18 11:22:42;;;;;;;21.98;18.50;;;20.40;95.70;;;;;;5000380;28;20097;-88
2021/09/18 11:25:30;;;;;;;21.20;18.63;;;20.50;95.60;;;;;;5016918;28;20067;-86
2021/09/18 11:28:12;;;;;;;22.70;19.73;;;20.60;95.40;;;;;;5006141;28;20025;-88
2021/09/18 11:30:45;;;;;;;21.67;18.45;;;20.70;95.30;;;;;;5028266;28;20105;-87
2021/09/18 11:33:18;;;;;;;23.67;20.95;;;20.70;95.20;;;;;;5021789;28;20021;-91
2021/09/18 11:35:56;;;;;;;26.15;21.85;;;20.80;95.20;;;;;;5021159;28;20029;-87
2021/09/18 11:38:29;;;;;;;25.98;21.88;;;20.90;95.00;;;;;;5037882;28;20067;-84
2021/09/18 11:41:05;;;;;;;24.92;20.48;;;21.00;94.80;;;;;;5019172;28;20030;-85
2021/09/18 11:43:32;;;;;;;22.23;19.73;;;21.00;94.70;;;;;;5015183;28;20071;-85
2021/09/18 11:45:58;;;;;;;21.92;19.27;;;21.10;94.90;;;;;;4996296;28;20088;-85
2021/09/18 11:48:25;;;;;;;21.90;19.33;;;21.20;94.50;;;;;;4984185;28;20054;-85
2021/09/18 11:50:52;;;;;;;26.40;21.10;;;21.30;94.30;;;;;;5020710;28;20017;-86
2021/09/18 11:53:18;;;;;;;24.20;20.73;;;21.40;94.10;;;;;;5026190;28;20030;-85
2021/09/18 11:55:44;;;;;;;23.42;19.27;;;21.50;93.90;;;;;;5023874;28;20025;-90
2021/09/18 11:58:17;;;;;;;23.45;20.58;;;21.50;93.80;;;;;;5039712;28;20032;-87
2021/09/18 12:00:46;;;;;;;26.45;22.33;;;21.60;93.60;;;;;;5035520;28;20076;-85
2021/09/18 12:03:13;;;;;;;28.75;23.63;;;21.70;93.70;;;;;;5025137;28;20094;-84
2021/09/18 12:05:39;;;;;;;26.65;22.98;;;21.70;93.50;;;;;;5016656;28;20033;-87
2021/09/18 12:08:09;;;;;;;23.23;19.45;;;21.80;93.10;;;;;;5015219;28;20101;-89
2021/09/18 12:10:35;;;;;;;23.45;19.98;;;21.90;93.20;;;;;;4993428;28;20129;-87
2021/09/18 12:13:08;;;;;;;24.90;20.33;;;21.90;93.20;;;;;;5010148;28;20144;-87
2021/09/18 12:15:37;;;;;;;23.90;20.50;;;22.00;93.10;;;;;;5020661;28;20018;-88
2021/09/18 12:18:04;;;;;;;25.05;21.30;;;22.10;93.00;;;;;;5016402;28;20116;-86
2021/09/18 12:20:32;;;;;;;22.67;19.73;;;22.10;92.70;;;;;;5016093;28;20112;-87
2021/09/18 12:22:58;;;;;;;23.00;19.42;;;22.20;92.50;;;;;;5014559;28;20038;-87
2021/09/18 12:25:27;;;;;;;23.98;19.75;;;22.30;92.40;;;;;;4998476;28;20033;-86
2021/09/18 12:28:02;;;;;;;24.52;21.67;;;22.30;92.30;;;;;;5026680;28;20080;-86
2021/09/18 12:30:39;;;;;;;22.40;19.50;;;22.40;92.00;;;;;;5011182;28;20017;-87
2021/09/18 12:33:08;;;;;;;28.23;22.25;;;22.40;92.00;;;;;;5007123;28;20438;-86
2021/09/18 12:35:48;;;;;;;25.55;22.33;;;22.50;92.10;;;;;;5014280;28;20495;-89
2021/09/18 12:38:17;;;;;;;25.38;22.33;;;22.60;92.00;;;;;;5027438;28;20044;-87
2021/09/18 12:40:46;;;;;;;24.25;20.50;;;22.60;92.00;;;;;;5025737;28;20034;-84
2021/09/18 12:43:20;;;;;;;22.00;18.80;;;22.70;91.80;;;;;;5033873;28;20030;-87